Time;durP1;ratioP1;P1;durP2;ratioP2;P2;SDS_P1;SDS_P2;PMS_P1;PMS_P2;Temp;Humidity;BMP_temperature;BMP_pressure;BME280_temperature;BME280_humidity;BME280_pressure;Samples;Min_cycle;Max_cycle;Signal;HPM_P1;HPM_P2
2022/07/10 00:02:14;;;;;;;2.00;0.98;;;12.20;99.90;;;;;;5075497;28;20167;-77
2022/07/10 00:04:39;;;;;;;3.17;1.00;;;12.20;99.90;;;;;;5075478;28;20055;-76
2022/07/10 00:07:06;;;;;;;4.63;1.00;;;12.10;99.90;;;;;;5075749;28;20040;-76
2022/07/10 00:09:32;;;;;;;3.30;1.30;;;12.10;99.90;;;;;;5058069;28;20048;-76
2022/07/10 00:11:57;;;;;;;2.85;1.08;;;12.00;99.90;;;;;;5058278;28;20051;-76
2022/07/10 00:14:24;;;;;;;4.68;1.00;;;12.00;99.90;;;;;;5075566;28;20052;-76
2022/07/10 00:16:49;;;;;;;4.35;1.35;;;11.90;99.90;;;;;;5074495;28;20075;-76
2022/07/10 00:19:15;;;;;;;1.70;0.82;;;11.90;99.90;;;;;;5075770;28;20493;-76
2022/07/10 00:21:41;;;;;;;3.50;1.00;;;11.80;99.90;;;;;;5074267;28;20048;-76
2022/07/10 00:24:06;;;;;;;2.75;0.90;;;11.80;99.90;;;;;;5074146;28;20080;-76
2022/07/10 00:26:32;;;;;;;4.18;1.25;;;11.80;99.90;;;;;;5074027;28;20071;-76
2022/07/10 00:28:58;;;;;;;3.10;1.05;;;11.70;99.90;;;;;;5074027;28;20040;-76
2022/07/10 00:31:24;;;;;;;2.88;0.95;;;11.70;99.90;;;;;;5074013;28;20044;-76
2022/07/10 00:33:50;;;;;;;4.68;1.90;;;11.60;99.90;;;;;;5075194;28;20102;-76
2022/07/10 00:36:16;;;;;;;2.63;1.02;;;11.60;99.90;;;;;;5057518;28;20074;-77
2022/07/10 00:38:42;;;;;;;2.83;1.13;;;11.50;99.90;;;;;;5075363;28;20549;-75
2022/07/10 00:41:07;;;;;;;3.80;1.10;;;11.50;99.90;;;;;;5057353;28;20369;-75
2022/07/10 00:43:56;;;;;;;4.60;1.20;;;11.60;99.90;;;;;;5075225;28;20076;-75
2022/07/10 00:46:22;;;;;;;2.58;1.00;;;11.60;99.90;;;;;;5075668;28;20068;-75
2022/07/10 00:48:52;;;;;;;5.45;1.20;;;11.60;99.90;;;;;;5057057;28;20040;-75
2022/07/10 00:51:20;;;;;;;4.57;1.38;;;11.50;99.90;;;;;;5074712;28;20047;-75
2022/07/10 00:53:47;;;;;;;3.97;1.10;;;11.50;99.90;;;;;;5075548;28;20083;-76
2022/07/10 00:56:16;;;;;;;3.35;0.90;;;11.50;99.90;;;;;;5074665;28;20393;-76
2022/07/10 00:58:43;;;;;;;2.33;1.10;;;11.50;99.90;;;;;;5072961;28;20068;-76
2022/07/10 01:01:09;;;;;;;2.70;0.95;;;11.50;99.90;;;;;;5074636;28;20131;-76
2022/07/10 01:03:35;;;;;;;2.65;1.00;;;11.50;99.90;;;;;;5057009;28;20080;-76
2022/07/10 01:06:01;;;;;;;2.47;0.88;;;11.50;99.90;;;;;;5056946;28;20065;-76
2022/07/10 01:08:27;;;;;;;2.25;1.05;;;11.40;99.90;;;;;;5074536;28;20056;-75
2022/07/10 01:10:53;;;;;;;5.93;1.75;;;11.40;99.90;;;;;;5057196;28;20044;-76
2022/07/10 01:13:19;;;;;;;5.20;1.20;;;11.40;99.90;;;;;;5074616;28;20040;-76
2022/07/10 01:15:46;;;;;;;2.65;1.17;;;11.40;99.90;;;;;;5074289;28;20056;-76
2022/07/10 01:18:13;;;;;;;3.25;1.00;;;11.40;99.90;;;;;;5073085;28;20048;-76
2022/07/10 01:20:38;;;;;;;4.07;1.05;;;11.40;99.90;;;;;;5073023;28;20033;-76
2022/07/10 01:23:04;;;;;;;5.20;1.50;;;11.30;99.90;;;;;;5074410;28;20047;-76
2022/07/10 01:25:30;;;;;;;2.83;1.45;;;11.40;99.90;;;;;;5056702;28;20048;-75
2022/07/10 01:27:56;;;;;;;5.82;1.42;;;11.30;99.90;;;;;;5072949;28;20060;-76
2022/07/10 01:30:21;;;;;;;5.75;1.40;;;11.30;99.90;;;;;;5073703;28;20052;-76
2022/07/10 01:32:47;;;;;;;3.47;1.20;;;11.30;99.90;;;;;;5056488;28;20047;-76
2022/07/10 01:35:13;;;;;;;5.00;1.10;;;11.30;99.90;;;;;;5073917;28;20454;-76
2022/07/10 01:37:39;;;;;;;3.50;1.00;;;11.30;99.90;;;;;;5073939;28;20048;-76
2022/07/10 01:40:06;;;;;;;3.95;1.38;;;11.40;99.90;;;;;;5073022;28;20048;-75
2022/07/10 01:42:32;;;;;;;2.08;1.10;;;11.40;99.90;;;;;;5073745;28;20049;-76
2022/07/10 01:44:58;;;;;;;3.63;1.00;;;11.50;99.90;;;;;;5073060;28;20044;-76
2022/07/10 01:47:27;;;;;;;7.40;1.40;;;11.60;99.90;;;;;;5074309;28;20067;-76
2022/07/10 01:49:54;;;;;;;2.67;1.20;;;11.70;99.90;;;;;;5073100;28;20067;-77
2022/07/10 01:52:20;;;;;;;5.65;1.38;;;11.70;99.90;;;;;;5073677;28;20040;-76
2022/07/10 01:54:47;;;;;;;6.53;1.20;;;11.70;99.90;;;;;;5072656;28;20052;-76
2022/07/10 01:57:13;;;;;;;3.35;1.10;;;11.70;99.90;;;;;;5073450;28;20060;-77
2022/07/10 01:59:39;;;;;;;3.88;1.23;;;11.70;99.90;;;;;;5073577;28;20052;-76
2022/07/10 02:02:05;;;;;;;3.97;1.38;;;11.70;99.90;;;;;;5073514;28;20048;-76
2022/07/10 02:04:43;;;;;;;2.30;1.10;;;11.60;99.90;;;;;;5072818;28;20044;-76
2022/07/10 02:07:09;;;;;;;4.63;1.40;;;11.60;99.90;;;;;;5090173;28;20044;-77
2022/07/10 02:09:36;;;;;;;2.97;0.95;;;11.50;99.90;;;;;;5073368;28;20048;-76
2022/07/10 02:12:02;;;;;;;3.40;1.27;;;11.60;99.90;;;;;;5055781;28;20044;-76
2022/07/10 02:14:27;;;;;;;5.32;1.40;;;11.50;99.90;;;;;;5056041;28;20457;-77
2022/07/10 02:16:53;;;;;;;3.42;1.45;;;11.50;99.90;;;;;;5073419;28;20048;-77
2022/07/10 02:19:19;;;;;;;3.17;1.10;;;11.50;99.90;;;;;;5071721;28;20147;-76
2022/07/10 02:21:46;;;;;;;6.10;1.38;;;11.40;99.90;;;;;;5071433;28;20048;-76
2022/07/10 02:24:12;;;;;;;4.22;1.00;;;11.40;99.90;;;;;;5072678;28;20052;-76
2022/07/10 02:26:37;;;;;;;5.25;1.52;;;11.30;99.90;;;;;;5072161;28;20052;-76
2022/07/10 02:29:03;;;;;;;3.90;1.20;;;11.30;99.90;;;;;;5073492;28;20045;-76
2022/07/10 02:31:29;;;;;;;3.75;1.20;;;11.30;99.90;;;;;;5073128;28;20048;-76
2022/07/10 02:33:54;;;;;;;4.53;1.02;;;11.30;99.90;;;;;;5073210;28;20048;-76
2022/07/10 02:36:20;;;;;;;3.90;1.10;;;11.20;99.90;;;;;;5073158;28;20086;-77
2022/07/10 02:38:46;;;;;;;5.43;1.10;;;11.20;99.90;;;;;;5071989;28;20052;-76
2022/07/10 02:41:11;;;;;;;2.65;1.10;;;11.20;99.90;;;;;;5071798;28;20114;-76
2022/07/10 02:43:37;;;;;;;5.88;1.50;;;11.20;99.90;;;;;;5073154;28;20079;-77
2022/07/10 02:46:03;;;;;;;5.70;1.30;;;11.20;99.90;;;;;;5073129;28;20095;-77
2022/07/10 02:48:29;;;;;;;3.92;1.13;;;11.20;99.90;;;;;;5071737;28;20098;-76
2022/07/10 02:50:55;;;;;;;5.25;1.00;;;11.20;99.90;;;;;;5072053;28;20049;-76
2022/07/10 02:53:20;;;;;;;3.92;1.67;;;11.20;99.90;;;;;;5072311;28;20044;-75
2022/07/10 02:55:46;;;;;;;2.85;1.10;;;11.20;99.90;;;;;;5072932;28;20502;-76
2022/07/10 02:58:12;;;;;;;3.88;1.08;;;11.20;99.90;;;;;;5073486;28;20057;-75
2022/07/10 03:00:37;;;;;;;4.78;1.27;;;11.20;99.90;;;;;;5071774;28;20051;-76
2022/07/10 03:03:03;;;;;;;3.95;0.95;;;11.20;99.90;;;;;;5072253;28;20093;-76
2022/07/10 03:05:29;;;;;;;3.25;1.20;;;11.20;99.90;;;;;;5073696;28;20131;-76
2022/07/10 03:07:55;;;;;;;3.13;1.23;;;11.20;99.90;;;;;;5071739;28;20423;-76
2022/07/10 03:10:20;;;;;;;3.42;1.38;;;11.20;99.90;;;;;;5072707;28;20044;-75
2022/07/10 03:12:46;;;;;;;3.00;1.00;;;11.10;99.90;;;;;;5072772;28;20048;-75
2022/07/10 03:15:13;;;;;;;3.22;1.45;;;11.10;99.90;;;;;;5071558;28;20500;-75
2022/07/10 03:17:39;;;;;;;3.08;1.40;;;11.10;99.90;;;;;;5072073;28;20044;-76
2022/07/10 03:20:06;;;;;;;4.47;1.08;;;11.00;99.90;;;;;;5071962;28;20408;-75
2022/07/10 03:22:32;;;;;;;4.85;1.15;;;11.00;99.90;;;;;;5071428;28;20048;-76
2022/07/10 03:24:58;;;;;;;4.55;1.20;;;10.90;99.90;;;;;;5073359;28;20055;-76
2022/07/10 03:27:24;;;;;;;3.67;0.95;;;10.90;99.90;;;;;;5072300;28;20477;-76
2022/07/10 03:29:50;;;;;;;3.70;1.00;;;10.90;99.90;;;;;;5072454;28;20533;-76
2022/07/10 03:32:16;;;;;;;4.70;1.45;;;10.90;99.90;;;;;;5074099;28;20090;-75
2022/07/10 03:34:41;;;;;;;3.80;1.10;;;11.00;99.90;;;;;;5076990;28;20044;-75
2022/07/10 03:37:08;;;;;;;2.88;1.05;;;10.90;99.90;;;;;;5074919;28;20049;-76
2022/07/10 03:39:33;;;;;;;5.60;1.10;;;10.90;99.90;;;;;;5076109;28;20041;-75
2022/07/10 03:41:59;;;;;;;4.80;1.50;;;10.90;99.90;;;;;;5076127;28;20190;-76
2022/07/10 03:44:25;;;;;;;4.00;1.20;;;10.90;99.90;;;;;;5076092;28;20052;-76
2022/07/10 03:46:50;;;;;;;5.28;1.30;;;11.00;99.90;;;;;;5075115;28;20044;-76
2022/07/10 03:49:16;;;;;;;3.45;1.10;;;10.90;99.90;;;;;;5074796;28;20052;-75
2022/07/10 03:51:42;;;;;;;3.85;1.00;;;10.90;99.90;;;;;;5075958;28;20133;-76
2022/07/10 03:54:07;;;;;;;5.05;1.13;;;10.90;99.90;;;;;;5076172;28;20048;-75
2022/07/10 03:59:17;;;;;;;3.13;1.10;;;11.10;99.90;;;;;;5075870;28;20052;-76
2022/07/10 04:01:43;;;;;;;4.30;0.90;;;10.80;99.90;;;;;;5076028;28;20102;-76
2022/07/10 04:04:09;;;;;;;3.95;1.60;;;10.70;99.90;;;;;;5076052;28;20048;-76
2022/07/10 04:06:37;;;;;;;3.63;1.10;;;10.80;99.90;;;;;;5074715;28;20474;-75
2022/07/10 04:09:04;;;;;;;5.55;2.10;;;10.90;99.90;;;;;;5074536;28;20048;-76
2022/07/10 04:11:30;;;;;;;5.65;1.55;;;10.90;99.90;;;;;;5074407;28;20044;-77
2022/07/10 04:13:56;;;;;;;4.85;1.20;;;11.10;99.90;;;;;;5058004;28;20044;-76
2022/07/10 04:16:22;;;;;;;5.47;1.00;;;11.20;99.90;;;;;;5076056;28;20055;-76
2022/07/10 04:18:48;;;;;;;4.35;1.02;;;11.30;99.90;;;;;;5076041;28;20052;-76
2022/07/10 04:21:14;;;;;;;4.60;1.10;;;11.50;99.90;;;;;;5074444;28;20044;-78
2022/07/10 04:23:40;;;;;;;4.78;1.33;;;11.60;99.90;;;;;;5075672;28;20044;-76
2022/07/10 04:26:05;;;;;;;2.38;0.90;;;11.70;99.90;;;;;;5075938;28;20531;-76
2022/07/10 04:28:31;;;;;;;3.97;1.20;;;11.80;99.90;;;;;;5074568;28;20048;-76
2022/07/10 04:30:57;;;;;;;3.17;1.00;;;11.90;99.90;;;;;;5073970;28;20043;-75
2022/07/10 04:33:23;;;;;;;3.70;1.23;;;12.00;99.90;;;;;;5058310;28;20036;-77
2022/07/10 04:35:49;;;;;;;3.47;1.13;;;12.00;99.90;;;;;;5075196;28;20088;-76
2022/07/10 04:38:15;;;;;;;4.18;1.10;;;12.00;99.90;;;;;;5073909;28;20113;-76
2022/07/10 04:40:40;;;;;;;3.05;0.95;;;12.00;99.90;;;;;;5057103;28;20054;-76
2022/07/10 04:43:06;;;;;;;4.53;1.13;;;12.10;99.90;;;;;;5074159;28;20084;-76
2022/07/10 04:45:31;;;;;;;3.05;1.05;;;12.10;99.90;;;;;;5074272;28;20139;-75
2022/07/10 04:47:57;;;;;;;3.00;1.00;;;12.10;99.90;;;;;;5057086;28;20106;-76
2022/07/10 04:50:23;;;;;;;2.17;0.90;;;12.20;99.90;;;;;;5073331;28;20094;-76
2022/07/10 04:52:48;;;;;;;3.53;1.30;;;12.20;99.90;;;;;;5057234;28;20044;-76
2022/07/10 04:55:14;;;;;;;4.57;1.40;;;12.20;99.90;;;;;;5073828;28;20052;-76
2022/07/10 04:57:44;;;;;;;5.13;1.00;;;12.20;99.90;;;;;;5073241;28;20048;-76
2022/07/10 05:00:11;;;;;;;4.05;1.20;;;12.30;99.90;;;;;;5073705;28;20063;-76
2022/07/10 05:02:36;;;;;;;2.63;0.90;;;12.30;99.90;;;;;;5073406;28;20051;-76
2022/07/10 05:05:02;;;;;;;3.13;1.35;;;12.40;99.90;;;;;;5075120;28;20049;-77
2022/07/10 05:07:28;;;;;;;4.90;1.45;;;12.40;99.90;;;;;;5073574;28;20090;-76
2022/07/10 05:09:54;;;;;;;3.28;1.10;;;12.50;99.90;;;;;;5072794;28;20041;-76
2022/07/10 05:12:19;;;;;;;4.13;1.10;;;12.50;99.90;;;;;;5074924;28;20098;-76
2022/07/10 05:14:45;;;;;;;1.75;0.80;;;12.50;99.90;;;;;;5057154;28;20129;-76
2022/07/10 05:17:11;;;;;;;4.78;1.30;;;12.60;99.90;;;;;;5074587;28;20052;-76
2022/07/10 05:19:36;;;;;;;3.08;1.25;;;12.60;99.90;;;;;;5073019;28;20040;-77
2022/07/10 05:22:02;;;;;;;5.68;1.08;;;12.70;99.90;;;;;;5073242;28;20136;-76
2022/07/10 05:24:28;;;;;;;2.47;0.98;;;12.70;99.90;;;;;;5073224;28;20109;-77
2022/07/10 05:26:53;;;;;;;4.80;1.10;;;12.80;99.90;;;;;;5074355;28;20106;-76
2022/07/10 05:29:19;;;;;;;3.42;0.98;;;12.80;99.90;;;;;;5074395;28;20048;-76
2022/07/10 05:31:45;;;;;;;6.93;1.40;;;12.80;99.90;;;;;;5073070;28;20052;-77
2022/07/10 05:34:11;;;;;;;5.00;1.17;;;12.90;99.90;;;;;;5072817;28;20045;-76
2022/07/10 05:36:36;;;;;;;3.10;1.42;;;12.90;99.90;;;;;;5072988;28;20044;-76
2022/07/10 05:39:02;;;;;;;3.33;0.98;;;13.00;99.90;;;;;;5073948;28;20041;-76
2022/07/10 05:41:28;;;;;;;3.20;0.85;;;13.00;99.90;;;;;;5073134;28;20379;-78
2022/07/10 05:43:55;;;;;;;4.38;1.00;;;13.00;99.90;;;;;;5073868;28;20040;-76
2022/07/10 05:46:20;;;;;;;3.20;1.00;;;13.10;99.90;;;;;;5073796;28;20048;-77
2022/07/10 05:48:46;;;;;;;5.55;1.10;;;13.20;99.90;;;;;;5072532;28;20086;-77
2022/07/10 05:51:12;;;;;;;3.22;0.93;;;13.20;99.90;;;;;;5073631;28;20199;-76
2022/07/10 05:53:37;;;;;;;5.70;1.10;;;13.20;99.90;;;;;;5072545;28;20080;-76
2022/07/10 05:56:03;;;;;;;3.80;1.40;;;13.30;99.90;;;;;;5073527;28;20045;-76
2022/07/10 05:58:29;;;;;;;4.07;1.00;;;13.40;99.90;;;;;;5072342;28;20398;-76
2022/07/10 06:00:55;;;;;;;2.58;0.98;;;13.40;99.90;;;;;;5072989;28;20044;-77
2022/07/10 06:03:21;;;;;;;3.70;0.98;;;13.50;99.90;;;;;;5074059;28;20159;-76
2022/07/10 06:05:47;;;;;;;3.65;1.00;;;13.60;99.90;;;;;;5073535;28;20052;-78
2022/07/10 06:08:13;;;;;;;3.83;1.08;;;13.70;99.90;;;;;;5073489;28;20054;-76
2022/07/10 06:10:43;;;;;;;4.78;1.45;;;13.70;99.90;;;;;;5072239;28;20116;-77
2022/07/10 06:13:10;;;;;;;7.03;1.38;;;13.80;99.90;;;;;;5073522;28;20049;-77
2022/07/10 06:15:36;;;;;;;4.63;1.30;;;13.80;99.90;;;;;;5073149;28;20527;-76
2022/07/10 06:18:02;;;;;;;4.22;1.10;;;13.90;99.90;;;;;;5072358;28;20049;-76
2022/07/10 06:20:27;;;;;;;2.42;0.98;;;13.80;99.90;;;;;;5072218;28;20051;-76
2022/07/10 06:22:53;;;;;;;4.53;1.00;;;13.90;99.90;;;;;;5055704;28;20128;-78
2022/07/10 06:25:19;;;;;;;5.90;1.30;;;13.90;99.90;;;;;;5055626;28;20074;-76
2022/07/10 06:27:44;;;;;;;3.30;1.23;;;13.90;99.90;;;;;;5073082;28;20040;-77
2022/07/10 06:30:11;;;;;;;4.10;1.20;;;14.00;99.90;;;;;;5073169;28;20389;-76
2022/07/10 06:32:38;;;;;;;5.57;1.30;;;14.10;99.90;;;;;;5072074;28;20132;-77
2022/07/10 06:35:04;;;;;;;4.18;1.40;;;14.20;99.90;;;;;;5073225;28;20049;-78
2022/07/10 06:37:31;;;;;;;5.25;1.30;;;14.20;99.90;;;;;;5073174;28;20055;-77
2022/07/10 06:39:56;;;;;;;4.20;1.20;;;14.30;99.90;;;;;;5072101;28;20071;-76
2022/07/10 06:42:22;;;;;;;5.50;1.20;;;14.40;99.90;;;;;;5072185;28;20040;-76
2022/07/10 06:44:48;;;;;;;5.07;1.52;;;14.50;99.90;;;;;;5073113;28;20488;-76
2022/07/10 06:50:01;;;;;;;5.18;2.15;;;14.70;99.90;;;;;;5073634;28;20045;-76
2022/07/10 06:52:27;;;;;;;5.53;1.08;;;14.70;99.90;;;;;;5072095;28;20048;-76
2022/07/10 06:54:53;;;;;;;3.83;1.17;;;14.80;99.90;;;;;;5073067;28;20036;-76
2022/07/10 06:57:19;;;;;;;6.88;1.30;;;14.80;99.90;;;;;;5073001;28;20397;-79
2022/07/10 06:59:46;;;;;;;6.55;1.38;;;14.70;99.90;;;;;;5071973;28;20056;-77
2022/07/10 07:02:11;;;;;;;2.83;1.15;;;14.70;99.90;;;;;;5072960;28;20084;-77
2022/07/10 07:04:37;;;;;;;5.07;1.42;;;14.70;99.90;;;;;;5071957;28;20079;-77
2022/07/10 07:07:03;;;;;;;4.15;1.20;;;14.70;99.90;;;;;;5075175;28;20040;-79
2022/07/10 07:09:29;;;;;;;3.58;1.40;;;14.60;99.90;;;;;;5076733;28;20052;-78
2022/07/10 07:11:55;;;;;;;7.40;1.50;;;14.60;99.90;;;;;;5059141;28;20158;-68
2022/07/10 07:14:20;;;;;;;5.70;1.58;;;14.50;99.90;;;;;;5076021;28;20505;-67
2022/07/10 07:16:57;;;;;;;4.32;1.30;;;14.40;99.90;;;;;;5076464;28;20123;-67
2022/07/10 07:19:30;;;;;;;;;;;14.30;99.90;;;;;;5077064;28;20052;-67
2022/07/10 07:24:44;;;;;;;5.65;1.33;;;14.20;99.90;;;;;;5076838;28;20097;-67
2022/07/10 07:27:13;;;;;;;4.57;1.45;;;14.30;99.90;;;;;;5076964;28;20101;-67
2022/07/10 07:29:39;;;;;;;5.25;1.55;;;14.40;99.90;;;;;;5076589;28;20195;-68
2022/07/10 07:32:05;;;;;;;4.85;1.50;;;14.40;99.90;;;;;;5076578;28;20127;-67
2022/07/10 07:34:33;;;;;;;3.70;1.30;;;14.40;99.90;;;;;;5075073;28;20040;-68
2022/07/10 07:36:59;;;;;;;4.57;1.48;;;14.50;99.90;;;;;;5075526;28;20131;-67
2022/07/10 07:39:24;;;;;;;5.07;1.60;;;14.50;99.90;;;;;;5076252;28;20465;-67
2022/07/10 07:41:50;;;;;;;4.38;1.63;;;14.60;99.90;;;;;;5075916;28;20048;-68
2022/07/10 07:44:17;;;;;;;3.35;1.40;;;14.60;99.90;;;;;;5076087;28;20083;-68
2022/07/10 07:46:43;;;;;;;3.70;1.35;;;14.60;99.90;;;;;;5075923;28;20048;-67
2022/07/10 07:49:09;;;;;;;6.50;1.52;;;14.70;99.90;;;;;;5075620;28;20489;-68
2022/07/10 07:51:38;;;;;;;3.60;1.23;;;14.80;99.90;;;;;;5075539;28;20056;-67
2022/07/10 07:54:04;;;;;;;5.15;1.42;;;14.90;99.90;;;;;;5075715;28;20105;-68
2022/07/10 07:56:29;;;;;;;3.35;1.27;;;15.00;99.90;;;;;;5074877;28;20119;-67
2022/07/10 07:58:56;;;;;;;4.72;1.75;;;15.10;99.90;;;;;;5075743;28;20055;-67
2022/07/10 08:01:21;;;;;;;5.13;1.30;;;15.30;99.90;;;;;;5075831;28;20055;-66
2022/07/10 08:03:47;;;;;;;5.72;1.30;;;15.40;99.90;;;;;;5075780;28;20045;-67
2022/07/10 08:06:13;;;;;;;3.22;1.20;;;15.60;99.90;;;;;;5075671;28;20044;-68
2022/07/10 08:08:38;;;;;;;3.45;1.20;;;15.80;99.90;;;;;;5076291;28;20424;-68
2022/07/10 08:11:05;;;;;;;3.50;1.23;;;15.90;99.90;;;;;;5076078;28;20048;-68
2022/07/10 08:13:32;;;;;;;3.40;1.10;;;16.00;99.90;;;;;;5075516;28;20036;-66
2022/07/10 08:15:58;;;;;;;3.20;1.10;;;16.10;99.90;;;;;;5076102;28;20094;-67
2022/07/10 08:18:24;;;;;;;3.28;1.00;;;16.20;99.90;;;;;;5073303;28;20048;-67
2022/07/10 08:20:50;;;;;;;5.85;1.00;;;16.20;99.90;;;;;;5074383;28;20056;-66
2022/07/10 08:23:15;;;;;;;3.92;1.02;;;16.20;99.90;;;;;;5075376;28;20135;-67
2022/07/10 08:25:41;;;;;;;4.45;1.50;;;16.00;99.90;;;;;;5075294;28;20044;-66
2022/07/10 08:28:07;;;;;;;4.30;1.00;;;16.00;99.90;;;;;;5075351;28;20052;-68
2022/07/10 08:30:33;;;;;;;1.92;0.70;;;15.80;99.90;;;;;;5074878;28;20524;-68
2022/07/10 08:32:59;;;;;;;1.70;0.77;;;15.70;99.90;;;;;;5075171;28;20485;-67
2022/07/10 08:35:25;;;;;;;1.63;0.80;;;15.50;99.90;;;;;;5075128;28;20059;-67
2022/07/10 08:37:50;;;;;;;1.30;0.60;;;15.40;99.90;;;;;;5075138;28;20044;-67
2022/07/10 08:40:17;;;;;;;1.33;0.70;;;15.30;99.90;;;;;;5074893;28;20122;-67
2022/07/10 08:42:46;;;;;;;1.98;0.63;;;15.30;99.90;;;;;;5075050;28;20048;-67
2022/07/10 08:45:13;;;;;;;2.38;0.80;;;15.30;99.90;;;;;;5074921;28;20037;-67
2022/07/10 08:47:41;;;;;;;3.20;0.80;;;15.30;99.90;;;;;;5074912;28;20056;-68
2022/07/10 08:50:28;;;;;;;2.67;0.85;;;15.40;99.90;;;;;;5074729;28;20405;-67
2022/07/10 08:52:57;;;;;;;3.20;0.85;;;15.50;99.90;;;;;;5075071;28;20045;-67
2022/07/10 08:55:26;;;;;;;2.10;0.70;;;15.50;99.90;;;;;;5074931;28;20466;-67
2022/07/10 08:57:55;;;;;;;2.35;0.70;;;15.60;99.90;;;;;;5074430;28;20059;-67
2022/07/10 09:00:22;;;;;;;2.58;0.73;;;15.70;99.90;;;;;;5074917;28;20106;-68
2022/07/10 09:02:48;;;;;;;2.10;0.65;;;15.70;99.90;;;;;;5074594;28;20087;-69
2022/07/10 09:05:14;;;;;;;2.97;0.80;;;15.70;99.90;;;;;;5074814;28;20080;-68
2022/07/10 09:07:41;;;;;;;3.50;0.80;;;15.80;99.90;;;;;;5074710;28;20072;-67
2022/07/10 09:10:09;;;;;;;3.70;0.68;;;15.80;99.90;;;;;;5073399;28;20095;-68
2022/07/10 09:12:50;;;;;;;1.83;0.65;;;15.90;99.90;;;;;;5074915;28;20056;-69
2022/07/10 09:15:17;;;;;;;3.22;0.80;;;15.90;99.90;;;;;;5074476;28;20055;-69
2022/07/10 09:17:58;;;;;;;2.42;0.70;;;16.10;99.90;;;;;;5074832;28;20048;-69
2022/07/10 09:20:32;;;;;;;1.40;0.70;;;16.10;99.90;;;;;;5074665;28;20056;-68
2022/07/10 09:22:59;;;;;;;3.80;0.93;;;16.20;99.90;;;;;;5074238;28;20055;-68
2022/07/10 09:25:32;;;;;;;2.33;0.93;;;16.20;99.90;;;;;;5074133;28;20052;-68
2022/07/10 09:27:59;;;;;;;2.55;0.70;;;16.30;99.90;;;;;;5072730;28;20044;-68
2022/07/10 09:30:36;;;;;;;1.95;0.70;;;16.30;99.90;;;;;;5072354;28;20045;-68
2022/07/10 09:33:15;;;;;;;3.50;0.93;;;16.20;99.90;;;;;;5072924;28;20091;-68
2022/07/10 09:36:05;;;;;;;2.00;0.70;;;16.20;99.90;;;;;;5073720;28;20048;-69
2022/07/10 09:38:42;;;;;;;2.78;0.80;;;16.10;99.90;;;;;;5073578;28;20428;-68
2022/07/10 09:41:24;;;;;;;1.98;0.60;;;16.10;99.90;;;;;;5072632;28;20128;-68
2022/07/10 09:44:01;;;;;;;2.20;0.60;;;16.00;99.90;;;;;;5073867;28;20119;-68
2022/07/10 09:46:35;;;;;;;1.70;0.65;;;16.00;99.90;;;;;;5074449;28;20095;-68
2022/07/10 09:49:30;;;;;;;2.33;0.70;;;16.00;99.90;;;;;;5074361;28;20041;-68
2022/07/10 09:51:56;;;;;;;2.67;0.57;;;16.10;99.90;;;;;;5073903;28;20056;-68
2022/07/10 09:54:22;;;;;;;2.72;0.65;;;16.00;99.90;;;;;;5073801;28;20048;-68
2022/07/10 09:56:51;;;;;;;2.70;0.68;;;16.00;99.90;;;;;;5056340;28;20056;-68
2022/07/10 09:59:20;;;;;;;2.65;0.70;;;16.00;99.90;;;;;;5073689;28;20056;-67
2022/07/10 10:01:50;;;;;;;2.38;0.80;;;16.00;99.90;;;;;;5073819;28;20045;-67
2022/07/10 10:04:24;;;;;;;1.83;0.60;;;16.10;99.90;;;;;;5073475;28;20044;-68
2022/07/10 10:06:52;;;;;;;1.45;0.60;;;16.10;99.90;;;;;;5073558;28;20056;-67
2022/07/10 10:09:32;;;;;;;1.40;0.50;;;16.10;99.90;;;;;;5073141;28;20556;-68
2022/07/10 10:12:09;;;;;;;2.15;0.60;;;16.10;99.90;;;;;;5073153;28;20106;-68
2022/07/10 10:14:36;;;;;;;2.50;0.65;;;16.30;99.90;;;;;;5073682;28;20406;-75
2022/07/10 10:17:05;;;;;;;2.78;0.95;;;16.20;99.90;;;;;;5055720;28;20055;-75
2022/07/10 10:22:19;;;;;;;1.63;0.60;;;16.10;99.90;;;;;;5073424;28;20131;-76
2022/07/10 10:24:46;;;;;;;1.42;0.68;;;16.00;99.90;;;;;;5073037;28;20478;-75
2022/07/10 10:27:13;;;;;;;1.35;0.60;;;16.00;99.90;;;;;;5072377;28;20053;-78
2022/07/10 10:29:40;;;;;;;2.45;0.82;;;15.90;99.90;;;;;;5073709;28;20409;-75
2022/07/10 10:32:08;;;;;;;4.72;0.73;;;15.90;99.90;;;;;;5073129;28;20090;-74
2022/07/10 10:35:00;;;;;;;1.73;0.60;;;15.90;99.90;;;;;;5073196;28;20123;-73
2022/07/10 10:37:44;;;;;;;1.10;0.50;;;15.80;99.90;;;;;;5072474;28;20105;-75
2022/07/10 10:40:29;;;;;;;2.13;0.55;;;15.70;99.90;;;;;;5073024;28;20127;-76
2022/07/10 10:42:55;;;;;;;1.38;0.50;;;15.80;99.90;;;;;;5075770;28;20131;-74
2022/07/10 10:45:31;;;;;;;1.73;0.70;;;15.80;99.90;;;;;;5076589;28;20135;-74
2022/07/10 10:47:57;;;;;;;;;;;15.90;99.90;;;;;;5076676;28;20493;-75
2022/07/10 10:50:42;;;;;;;0.98;0.50;;;16.00;99.90;;;;;;5077124;28;19970;-74
2022/07/10 10:53:26;;;;;;;2.15;0.70;;;16.00;99.90;;;;;;5076988;28;20053;-79
2022/07/10 10:56:04;;;;;;;1.63;0.60;;;16.00;99.90;;;;;;5059235;28;20049;-74
2022/07/10 10:58:41;;;;;;;2.60;0.80;;;16.10;99.90;;;;;;5075644;28;20056;-74
2022/07/10 11:01:24;;;;;;;1.40;0.70;;;16.10;99.90;;;;;;5076337;28;20083;-76
2022/07/10 11:04:04;;;;;;;1.55;0.60;;;16.10;99.90;;;;;;5060028;28;20128;-77
2022/07/10 11:06:50;;;;;;;1.90;0.82;;;16.10;99.90;;;;;;5075862;28;20052;-76
2022/07/10 11:09:22;;;;;;;1.95;0.60;;;16.10;99.90;;;;;;5076877;28;20055;-74
2022/07/10 11:12:07;;;;;;;1.52;0.60;;;16.10;99.90;;;;;;5076529;28;20350;-74
2022/07/10 11:14:38;;;;;;;2.08;0.77;;;16.10;99.90;;;;;;5076437;28;20492;-75
2022/07/10 11:17:06;;;;;;;1.50;0.77;;;16.10;99.90;;;;;;5076668;28;20083;-76
2022/07/10 11:19:33;;;;;;;2.08;0.90;;;16.20;99.90;;;;;;5092638;28;20053;-76
2022/07/10 11:22:42;;;;;;;2.78;1.10;;;16.30;99.90;;;;;;5077076;28;20131;-77
2022/07/10 11:25:24;;;;;;;1.60;0.90;;;16.40;99.90;;;;;;5076155;28;20060;-77
2022/07/10 11:28:09;;;;;;;2.20;0.80;;;16.40;99.90;;;;;;5076299;28;20056;-76
2022/07/10 11:30:52;;;;;;;3.58;1.20;;;16.40;99.90;;;;;;5075579;28;20048;-74
2022/07/10 11:33:22;;;;;;;1.40;0.82;;;16.30;99.90;;;;;;5076368;28;20451;-75
2022/07/10 11:35:52;;;;;;;1.38;0.68;;;16.30;99.90;;;;;;5076661;28;20051;-75
2022/07/10 11:38:20;;;;;;;3.85;1.17;;;16.30;99.90;;;;;;5076213;28;20049;-75
2022/07/10 11:40:46;;;;;;;2.63;1.20;;;16.30;99.90;;;;;;5075907;28;20056;-74
2022/07/10 11:43:16;;;;;;;2.05;0.90;;;16.30;99.90;;;;;;5074940;28;20044;-75
2022/07/10 11:45:43;;;;;;;4.53;1.30;;;16.30;99.90;;;;;;5075465;28;20056;-76
2022/07/10 11:48:17;;;;;;;3.55;1.00;;;16.20;99.90;;;;;;5075884;28;20493;-75
2022/07/10 11:50:44;;;;;;;3.58;1.25;;;16.00;99.90;;;;;;5075406;28;20047;-76
2022/07/10 11:53:10;;;;;;;3.15;1.70;;;16.00;99.90;;;;;;5074765;28;20079;-76
2022/07/10 11:55:40;;;;;;;4.28;1.30;;;16.00;99.90;;;;;;5076453;28;20052;-76
2022/07/10 11:58:16;;;;;;;4.63;1.42;;;16.10;99.90;;;;;;5075302;28;20130;-75
2022/07/10 12:00:42;;;;;;;2.47;1.10;;;16.20;99.90;;;;;;5075744;28;20048;-75
2022/07/10 12:03:20;;;;;;;2.92;1.25;;;16.30;99.90;;;;;;5074645;28;20047;-76
2022/07/10 12:05:48;;;;;;;3.70;1.42;;;16.40;99.90;;;;;;5075846;28;20489;-76
2022/07/10 12:08:14;;;;;;;2.97;1.88;;;16.50;99.90;;;;;;5075467;28;20045;-76
2022/07/10 12:10:41;;;;;;;2.42;1.50;;;16.60;99.90;;;;;;5075081;28;20048;-76
2022/07/10 12:13:10;;;;;;;4.18;1.30;;;16.60;99.90;;;;;;5075758;28;20131;-76
2022/07/10 12:15:41;;;;;;;6.03;1.67;;;16.70;99.90;;;;;;5075315;28;20516;-75
2022/07/10 12:18:15;;;;;;;5.05;1.50;;;16.80;99.90;;;;;;5075844;28;20504;-76
2022/07/10 12:20:45;;;;;;;3.60;1.60;;;16.90;99.90;;;;;;5074865;28;20111;-76
2022/07/10 12:23:14;;;;;;;4.28;1.40;;;17.00;99.90;;;;;;5074742;28;20055;-76
2022/07/10 12:25:42;;;;;;;3.70;1.40;;;17.00;99.90;;;;;;5075890;28;20421;-75
2022/07/10 12:28:07;;;;;;;3.10;1.50;;;17.00;99.90;;;;;;5075366;28;20130;-76
2022/07/10 12:30:38;;;;;;;3.22;1.23;;;17.00;99.90;;;;;;5074937;28;20056;-77
2022/07/10 12:33:18;;;;;;;2.53;1.60;;;16.90;99.90;;;;;;5074493;28;20049;-76
2022/07/10 12:35:54;;;;;;;2.25;1.30;;;16.80;99.90;;;;;;5074630;28;20044;-76
2022/07/10 12:38:33;;;;;;;3.22;1.40;;;16.70;99.90;;;;;;5075008;28;20051;-76
2022/07/10 12:41:10;;;;;;;2.72;1.50;;;16.60;99.90;;;;;;5074377;28;20049;-76
2022/07/10 12:43:36;;;;;;;2.30;1.27;;;16.50;99.90;;;;;;5075038;28;20101;-76
2022/07/10 12:46:18;;;;;;;2.00;1.30;;;16.50;99.90;;;;;;5074037;28;20436;-76
2022/07/10 12:49:04;;;;;;;4.03;1.95;;;16.50;99.90;;;;;;5074064;28;20489;-75
2022/07/10 12:51:34;;;;;;;;;;;16.50;99.90;;;;;;5073464;28;20512;-77
2022/07/10 12:54:00;;;;;;;2.35;1.30;;;16.60;99.90;;;;;;5074181;28;20006;-77
2022/07/10 12:56:37;;;;;;;3.13;1.50;;;16.60;99.90;;;;;;5073457;28;20091;-76
2022/07/10 12:59:16;;;;;;;2.88;1.23;;;16.60;99.90;;;;;;5074088;28;20059;-75
2022/07/10 13:01:45;;;;;;;2.63;1.00;;;16.50;99.90;;;;;;5073493;28;20036;-73
2022/07/10 13:04:11;;;;;;;2.88;1.05;;;16.30;99.90;;;;;;5074210;28;20045;-72
2022/07/10 13:06:39;;;;;;;3.17;1.27;;;16.10;99.90;;;;;;5074568;28;20481;-72